Time;durP1;ratioP1;P1;durP2;ratioP2;P2;SDS_P1;SDS_P2;PMS_P1;PMS_P2;Temp;Humidity;BMP_temperature;BMP_pressure;BME280_temperature;BME280_humidity;BME280_pressure;Samples;Min_cycle;Max_cycle;Signal;HPM_P1;HPM_P2
2023/03/30 00:00:59;;;;;;;10.57;4.03;;;;;;;14.02;44.17;98400.06;4486363;32;20118;-80
2023/03/30 00:03:27;;;;;;;11.38;4.60;;;;;;;13.69;45.01;98400.00;4487275;32;20099;-80
2023/03/30 00:05:57;;;;;;;9.52;3.95;;;;;;;14.25;43.70;98397.16;4486181;32;20076;-79
2023/03/30 00:08:28;;;;;;;10.05;4.65;;;;;;;14.37;43.06;98393.91;4487128;31;20115;-80
2023/03/30 00:11:02;;;;;;;9.82;4.15;;;;;;;14.56;42.97;98388.59;4487417;31;20152;-80
2023/03/30 00:13:31;;;;;;;9.20;4.03;;;;;;;14.09;43.67;98384.13;4486127;32;20156;-79
2023/03/30 00:15:58;;;;;;;10.90;4.47;;;;;;;14.81;42.40;98384.69;4486860;31;20073;-79
2023/03/30 00:18:25;;;;;;;10.98;4.43;;;;;;;14.13;43.75;98383.03;4487347;31;20112;-80
2023/03/30 00:20:52;;;;;;;10.55;4.22;;;;;;;14.08;44.12;98379.00;4487462;31;20110;-80
2023/03/30 00:23:19;;;;;;;10.20;4.05;;;;;;;13.72;45.06;98381.72;4486896;32;20129;-80
2023/03/30 00:25:46;;;;;;;8.75;3.60;;;;;;;14.07;44.27;98377.34;4487125;31;20111;-80
2023/03/30 00:28:13;;;;;;;11.27;4.07;;;;;;;13.93;44.54;98375.47;4487294;31;20092;-80
2023/03/30 00:30:40;;;;;;;10.57;4.10;;;;;;;13.83;44.50;98377.69;4487007;31;20084;-79
2023/03/30 00:33:07;;;;;;;8.35;3.50;;;;;;;13.85;44.59;98372.41;4487240;31;20587;-80
2023/03/30 00:35:35;;;;;;;9.65;4.18;;;;;;;13.93;44.55;98370.28;4486944;31;20187;-80
2023/03/30 00:38:02;;;;;;;9.45;3.60;;;;;;;14.05;44.34;98367.03;4486535;31;20119;-80
2023/03/30 00:40:31;;;;;;;10.50;3.83;;;;;;;14.15;43.88;98357.03;4487221;31;20100;-79
2023/03/30 00:43:03;;;;;;;11.00;4.12;;;;;;;14.36;43.36;98365.44;4487054;31;20093;-79
2023/03/30 00:45:31;;;;;;;12.10;4.95;;;;;;;14.85;42.46;98363.66;4486665;31;20080;-80
2023/03/30 00:48:10;;;;;;;10.57;4.10;;;;;;;13.85;44.45;98356.84;4485812;32;20443;-80
2023/03/30 00:50:42;;;;;;;12.02;4.87;;;;;;;14.14;44.24;98350.13;4486750;31;20096;-80
2023/03/30 00:53:42;;;;;;;16.98;6.35;;;;;;;13.83;44.67;98346.56;4487004;31;20084;-79
2023/03/30 00:56:11;;;;;;;17.92;7.43;;;;;;;14.07;44.22;98346.19;4485577;32;20145;-80
2023/03/30 00:58:39;;;;;;;18.87;8.27;;;;;;;14.06;43.96;98336.75;4485214;32;20088;-79
2023/03/30 01:01:09;;;;;;;17.35;6.60;;;;;;;14.11;43.73;98337.31;4485706;32;20599;-79
2023/03/30 01:03:44;;;;;;;12.93;5.72;;;;;;;13.92;43.64;98329.66;4486692;31;20076;-80
2023/03/30 01:06:13;;;;;;;12.32;4.85;;;;;;;13.88;43.35;98326.38;4485130;32;20152;-80
2023/03/30 01:08:41;;;;;;;10.13;3.97;;;;;;;13.83;44.49;98331.00;4486673;31;20157;-79
2023/03/30 01:11:08;;;;;;;10.82;4.10;;;;;;;14.00;43.89;98335.28;4486828;32;20104;-79
2023/03/30 01:13:37;;;;;;;10.35;3.83;;;;;;;13.30;45.85;98334.53;4488336;31;20492;-79
2023/03/30 01:16:04;;;;;;;10.30;4.03;;;;;;;13.00;47.38;98330.78;4487222;32;20107;-79
2023/03/30 01:18:43;;;;;;;11.27;4.12;;;;;;;13.51;46.33;98331.78;4488258;31;20144;-79
2023/03/30 01:21:31;;;;;;;9.65;3.83;;;;;;;13.92;44.77;98334.84;4488789;31;20429;-79
2023/03/30 01:24:36;;;;;;;11.77;4.30;;;;;;;13.63;45.52;98325.97;4488709;31;20084;-79
2023/03/30 01:27:31;;;;;;;9.90;4.00;;;;;;;13.75;45.37;98322.75;4488177;32;20084;-79
2023/03/30 01:30:13;;;;;;;9.90;3.80;;;;;;;13.55;45.78;98315.16;4487382;32;20442;-79
2023/03/30 01:33:04;;;;;;;9.93;4.12;;;;;;;13.27;45.94;98313.91;4488372;31;20092;-79
2023/03/30 01:35:45;;;;;;;11.30;4.78;;;;;;;13.46;45.65;98306.06;4488465;32;20076;-79
2023/03/30 01:38:52;;;;;;;10.93;4.45;;;;;;;13.81;44.92;98299.09;4487350;32;20544;-79
2023/03/30 01:41:36;;;;;;;10.00;4.12;;;;;;;13.28;45.95;98289.69;4487081;32;20101;-79
2023/03/30 01:44:36;;;;;;;12.77;4.60;;;;;;;12.52;47.62;98280.41;4488511;31;20503;-79
2023/03/30 01:47:10;;;;;;;15.32;5.68;;;;;;;9.16;59.87;98273.22;4461582;31;20156;-79
2023/03/30 01:49:59;;;;;;;11.00;4.90;;;;;;;8.80;63.46;98295.00;4488592;31;20499;-79
2023/03/30 01:52:29;;;;;;;11.63;4.93;;;;;;;10.38;56.81;98302.37;4487116;32;20111;-79
2023/03/30 01:55:14;;;;;;;10.80;4.55;;;;;;;11.26;53.55;98298.00;4488259;32;20088;-79
2023/03/30 01:57:46;;;;;;;12.02;4.65;;;;;;;11.66;52.11;98303.25;4488362;31;20080;-79
2023/03/30 02:00:17;;;;;;;11.02;4.40;;;;;;;11.78;51.12;98289.78;4487277;32;20450;-79
2023/03/30 02:02:48;;;;;;;10.00;4.45;;;;;;;10.55;54.81;98278.53;4486936;32;20482;-79
2023/03/30 02:05:17;;;;;;;10.55;4.40;;;;;;;12.09;50.04;98286.72;4488374;31;20108;-79
2023/03/30 02:07:49;;;;;;;10.98;4.18;;;;;;;11.21;51.76;98288.78;4486641;32;20100;-79
2023/03/30 02:10:17;;;;;;;10.55;4.25;;;;;;;11.66;50.76;98290.31;4487170;32;20144;-79
2023/03/30 02:12:45;;;;;;;10.57;3.87;;;;;;;11.31;52.01;98295.25;4487119;32;20512;-79
2023/03/30 02:15:14;;;;;;;11.02;4.00;;;;;;;10.39;55.40;98287.75;4486629;32;20100;-79
2023/03/30 02:17:42;;;;;;;11.52;4.55;;;;;;;11.70;51.52;98281.53;4486963;32;20088;-79
2023/03/30 02:20:11;;;;;;;10.57;4.45;;;;;;;12.02;50.42;98275.81;4488230;31;20077;-79
2023/03/30 02:22:38;;;;;;;11.50;5.00;;;;;;;11.74;51.07;98272.75;4487160;31;20107;-79
2023/03/30 02:25:05;;;;;;;12.88;5.30;;;;;;;12.61;48.78;98273.97;4488186;31;20084;-79
2023/03/30 02:27:33;;;;;;;12.57;5.07;;;;;;;12.81;47.83;98275.59;4488048;31;20097;-79
2023/03/30 02:30:00;;;;;;;10.85;4.72;;;;;;;12.73;47.79;98273.38;4487733;31;20081;-79
2023/03/30 02:32:32;;;;;;;14.82;6.03;;;;;;;12.71;47.77;98270.87;4488114;31;20687;-79
2023/03/30 02:35:26;;;;;;;12.95;4.75;;;;;;;12.45;49.01;98269.53;4488238;31;20121;-79
2023/03/30 02:38:17;;;;;;;10.32;4.60;;;;;;;12.13;49.54;98272.75;4486572;32;20141;-79
2023/03/30 02:40:58;;;;;;;10.27;4.20;;;;;;;12.44;48.92;98274.75;4488082;31;20487;-79
2023/03/30 02:43:49;;;;;;;10.50;4.35;;;;;;;12.55;48.61;98277.69;4486573;32;20100;-79
2023/03/30 02:46:19;;;;;;;13.60;4.53;;;;;;;13.23;46.87;98283.06;4487977;32;20087;-79
2023/03/30 02:48:58;;;;;;;12.43;4.40;;;;;;;13.43;46.64;98282.06;4487906;31;20446;-79
2023/03/30 02:51:42;;;;;;;10.07;4.50;;;;;;;13.25;47.02;98294.19;4486250;32;20076;-79
2023/03/30 02:54:19;;;;;;;11.38;4.85;;;;;;;12.90;47.48;98295.88;4488005;31;20439;-79
2023/03/30 02:56:54;;;;;;;11.18;4.68;;;;;;;12.99;46.96;98292.84;4486378;32;20118;-79
2023/03/30 02:59:27;;;;;;;12.40;4.32;;;;;;;12.57;47.74;98282.81;4487962;31;20098;-79
2023/03/30 03:01:58;;;;;;;11.27;4.22;;;;;;;12.10;49.50;98278.87;4487896;31;20080;-79
2023/03/30 03:04:27;;;;;;;11.90;4.93;;;;;;;12.29;49.29;98273.72;4487647;32;20148;-79
2023/03/30 03:06:54;;;;;;;11.63;4.37;;;;;;;12.26;49.04;98267.84;4487781;31;20104;-79
2023/03/30 03:09:25;;;;;;;11.00;4.50;;;;;;;12.21;49.37;98252.53;4486690;32;20080;-79
2023/03/30 03:11:51;;;;;;;12.52;5.00;;;;;;;12.60;48.88;98255.00;4487576;31;20072;-79
2023/03/30 03:14:19;;;;;;;10.73;4.50;;;;;;;12.38;49.61;98269.88;4487758;32;20145;-79
2023/03/30 03:16:47;;;;;;;10.98;4.90;;;;;;;10.90;54.99;98274.53;4486506;32;20100;-79
2023/03/30 03:19:14;;;;;;;13.40;5.53;;;;;;;10.19;59.45;98257.50;4487410;31;20080;-79
2023/03/30 03:21:41;;;;;;;13.80;5.40;;;;;;;11.21;55.54;98262.97;4487934;31;20068;-79
2023/03/30 03:24:08;;;;;;;13.70;5.57;;;;;;;11.77;53.43;98270.84;4487811;31;20104;-79
2023/03/30 03:26:35;;;;;;;13.38;5.82;;;;;;;11.42;54.43;98269.78;4487424;31;20096;-79
2023/03/30 03:29:02;;;;;;;16.02;5.93;;;;;;;11.53;53.53;98262.44;4487741;32;20445;-79
2023/03/30 03:31:29;;;;;;;13.07;5.43;;;;;;;11.96;52.48;98244.22;4487771;31;20089;-79
2023/03/30 03:33:56;;;;;;;13.55;5.43;;;;;;;12.96;49.98;98244.62;4486207;31;20157;-79
2023/03/30 03:36:23;;;;;;;13.32;6.07;;;;;;;12.89;49.06;98263.97;4487462;32;20088;-79
2023/03/30 03:38:51;;;;;;;;;;;;;;;12.41;50.04;98234.31;4486290;32;20102;-79
2023/03/30 03:41:18;;;;;;;16.58;8.10;;;;;;;11.63;52.21;98228.44;4487797;32;20322;-79
2023/03/30 03:43:45;;;;;;;13.93;7.30;;;;;;;11.79;52.23;98230.28;4487655;31;20095;-79
2023/03/30 03:46:12;;;;;;;18.17;6.28;;;;;;;12.27;51.15;98243.66;4487186;32;20100;-79
2023/03/30 03:48:39;;;;;;;14.23;5.80;;;;;;;12.38;50.38;98241.41;4487712;31;20557;-79
2023/03/30 03:51:08;;;;;;;13.35;6.10;;;;;;;10.86;57.42;98230.84;4487393;31;20545;-79
2023/03/30 03:53:35;;;;;;;13.15;5.93;;;;;;;11.35;55.41;98234.78;4487230;31;20136;-79
2023/03/30 03:56:02;;;;;;;15.25;6.70;;;;;;;11.73;54.44;98233.13;4487479;31;20160;-79
2023/03/30 03:58:29;;;;;;;12.43;5.68;;;;;;;12.64;51.31;98242.75;4487474;31;20084;-79
2023/03/30 04:00:58;;;;;;;14.65;5.03;;;;;;;12.09;52.83;98247.91;4487163;31;20077;-79
2023/03/30 04:03:25;;;;;;;10.95;4.55;;;;;;;12.12;53.85;98248.63;4487423;31;20159;-79
2023/03/30 04:05:52;;;;;;;11.23;5.37;;;;;;;11.15;56.32;98239.97;4487384;31;20392;-79
2023/03/30 04:08:20;;;;;;;12.75;5.60;;;;;;;10.99;57.41;98245.78;4487125;31;20088;-79
2023/03/30 04:10:47;;;;;;;13.98;4.60;;;;;;;12.32;52.61;98250.28;4487510;31;20068;-79
2023/03/30 04:13:14;;;;;;;11.82;4.20;;;;;;;12.41;52.33;98243.84;4487363;31;20136;-79
2023/03/30 04:15:41;;;;;;;10.30;4.62;;;;;;;12.62;51.49;98254.94;4486968;31;20112;-79
2023/03/30 04:18:07;;;;;;;12.52;4.82;;;;;;;13.07;49.72;98249.25;4487446;31;20141;-79
2023/03/30 04:20:34;;;;;;;9.70;3.97;;;;;;;12.57;50.36;98251.75;4487326;32;20088;-79
2023/03/30 04:23:01;;;;;;;10.63;4.40;;;;;;;10.75;56.97;98254.53;4487011;32;20096;-79
2023/03/30 04:25:28;;;;;;;10.77;4.75;;;;;;;9.72;62.32;98252.38;4487281;31;20104;-79
2023/03/30 04:27:56;;;;;;;11.35;5.00;;;;;;;11.17;57.61;98245.91;4486896;31;20089;-79
2023/03/30 04:30:23;;;;;;;12.30;5.70;;;;;;;10.81;59.01;98243.94;4487210;31;20431;-79
2023/03/30 04:33:01;;;;;;;12.27;5.47;;;;;;;11.46;57.01;98236.91;4487257;31;20096;-79
2023/03/30 04:35:32;;;;;;;13.18;6.05;;;;;;;11.45;56.49;98232.66;4486902;31;20097;-79
2023/03/30 04:38:00;;;;;;;12.57;5.55;;;;;;;11.95;54.76;98235.63;4487129;31;20155;-79
2023/03/30 04:40:28;;;;;;;13.65;5.40;;;;;;;12.08;53.98;98228.13;4487149;31;20076;-79
2023/03/30 04:43:00;;;;;;;14.95;7.05;;;;;;;13.04;50.54;98234.72;4486788;31;20096;-79
2023/03/30 04:45:29;;;;;;;15.05;7.03;;;;;;;12.29;52.51;98216.78;4486708;31;20114;-79
2023/03/30 04:47:56;;;;;;;13.65;6.10;;;;;;;12.53;52.15;98230.31;4487051;31;20372;-79
2023/03/30 04:50:23;;;;;;;14.75;6.87;;;;;;;11.96;53.75;98223.53;4486582;31;20080;-79
2023/03/30 04:52:50;;;;;;;13.25;6.35;;;;;;;12.38;52.40;98221.53;4486544;32;20481;-80
2023/03/30 04:55:17;;;;;;;14.82;7.07;;;;;;;12.97;51.01;98215.25;4486911;31;20379;-79
2023/03/30 04:57:44;;;;;;;19.05;9.60;;;;;;;12.97;50.93;98207.47;4486240;31;20356;-80
2023/03/30 05:00:12;;;;;;;20.52;8.55;;;;;;;13.16;50.60;98207.34;4486940;31;20107;-79
2023/03/30 05:02:39;;;;;;;16.83;8.05;;;;;;;13.34;50.34;98200.44;4486820;31;20088;-79
2023/03/30 05:05:07;;;;;;;12.27;6.37;;;;;;;13.43;50.15;98206.91;4486503;31;20132;-79
2023/03/30 05:07:34;;;;;;;14.75;5.93;;;;;;;12.72;49.47;98206.97;4486636;31;20144;-80
2023/03/30 05:10:01;;;;;;;14.75;6.28;;;;;;;12.72;50.40;98199.22;4486466;31;20085;-79
2023/03/30 05:12:28;;;;;;;12.48;5.45;;;;;;;13.10;49.94;98201.66;4486698;31;20499;-79
2023/03/30 05:14:54;;;;;;;12.10;5.20;;;;;;;13.39;49.34;98201.03;4486681;31;20153;-79
2023/03/30 05:17:21;;;;;;;15.32;5.82;;;;;;;14.27;46.68;98205.00;4485978;32;20099;-79
2023/03/30 05:19:48;;;;;;;19.33;10.18;;;;;;;14.22;46.85;98197.47;4486598;31;20099;-79
2023/03/30 05:22:15;;;;;;;22.52;11.70;;;;;;;14.00;47.47;98200.38;4486528;32;20088;-80
2023/03/30 05:24:42;;;;;;;22.65;11.15;;;;;;;14.08;47.62;98200.81;4486129;32;20157;-79
2023/03/30 05:27:09;;;;;;;24.95;12.90;;;;;;;14.14;47.76;98203.09;4486299;32;20080;-80
2023/03/30 05:29:36;;;;;;;20.35;10.38;;;;;;;15.08;45.06;98231.59;4486332;32;20130;-79
2023/03/30 05:32:03;;;;;;;21.02;10.40;;;;;;;13.90;47.41;98232.94;4485873;32;20088;-79
2023/03/30 05:34:30;;;;;;;21.05;10.15;;;;;;;13.08;49.95;98221.59;4486335;32;20110;-79
2023/03/30 05:36:57;;;;;;;18.73;8.90;;;;;;;13.55;48.11;98227.00;4486139;31;20145;-79
2023/03/30 05:39:24;;;;;;;22.83;10.40;;;;;;;13.57;48.05;98220.81;4485705;32;20092;-79
2023/03/30 05:41:51;;;;;;;18.52;7.95;;;;;;;13.91;47.16;98232.00;4486231;32;20159;-79
2023/03/30 05:44:18;;;;;;;18.40;7.00;;;;;;;13.71;47.23;98227.03;4486268;32;20088;-79
2023/03/30 05:46:48;;;;;;;13.55;5.47;;;;;;;13.03;49.49;98221.84;4485825;31;20081;-79
2023/03/30 05:49:15;;;;;;;13.27;5.80;;;;;;;13.14;48.61;98221.31;4486069;31;20160;-79
2023/03/30 05:51:42;;;;;;;11.80;4.65;;;;;;;13.36;48.63;98221.09;4485928;31;20422;-79
2023/03/30 05:54:11;;;;;;;12.27;4.70;;;;;;;13.49;48.81;98219.53;4485686;32;20157;-80
2023/03/30 05:56:39;;;;;;;12.00;4.72;;;;;;;13.10;51.03;98218.03;4485904;32;20084;-79
2023/03/30 05:59:07;;;;;;;11.95;4.95;;;;;;;13.25;50.69;98214.69;4488030;31;20072;-78
2023/03/30 06:01:34;;;;;;;12.05;5.35;;;;;;;12.98;50.67;98222.09;4487218;32;20115;-79
2023/03/30 06:04:01;;;;;;;11.50;5.22;;;;;;;12.80;50.89;98211.78;4488420;31;20107;-79
2023/03/30 06:06:28;;;;;;;12.23;5.22;;;;;;;13.00;51.17;98211.66;4488321;31;20084;-79
2023/03/30 06:08:55;;;;;;;14.07;5.80;;;;;;;12.99;51.96;98210.81;4488652;31;20075;-79
2023/03/30 06:11:22;;;;;;;14.20;5.85;;;;;;;12.96;53.79;98215.28;4489349;31;20666;-79
2023/03/30 06:13:49;;;;;;;15.95;6.70;;;;;;;13.51;52.72;98215.13;4487943;31;20520;-79
2023/03/30 06:16:16;;;;;;;14.45;7.00;;;;;;;13.42;52.94;98216.44;4493791;32;20072;-79
2023/03/30 06:18:42;;;;;;;13.73;6.78;;;;;;;13.45;54.22;98210.25;4495413;32;20052;-79
2023/03/30 06:21:10;;;;;;;15.38;7.05;;;;;;;14.59;49.81;98211.03;4494483;31;20057;-79
2023/03/30 06:23:39;;;;;;;16.60;6.78;;;;;;;14.22;50.03;98201.81;4493690;32;20117;-79
2023/03/30 06:26:06;;;;;;;14.43;6.35;;;;;;;14.47;49.96;98204.78;4488912;31;20109;-79
2023/03/30 06:28:33;;;;;;;12.75;6.12;;;;;;;14.97;47.97;98201.03;4486545;32;20399;-75
2023/03/30 06:31:01;;;;;;;12.40;6.15;;;;;;;14.99;47.58;98213.03;4486853;32;20096;-75
2023/03/30 06:33:29;;;;;;;13.55;5.87;;;;;;;16.16;45.30;98223.34;4488049;31;20088;-76
2023/03/30 06:35:56;;;;;;;13.68;5.20;;;;;;;15.83;45.54;98225.41;4488093;31;20828;-78
2023/03/30 06:38:23;;;;;;;12.68;6.07;;;;;;;15.74;45.05;98219.00;4489049;31;20127;-80
2023/03/30 06:40:50;;;;;;;16.08;6.18;;;;;;;15.29;45.61;98228.56;4488045;31;20119;-80
2023/03/30 06:43:20;;;;;;;12.40;6.07;;;;;;;14.70;48.04;98221.66;4487538;31;20096;-80
2023/03/30 06:45:51;;;;;;;14.40;6.05;;;;;;;15.55;46.45;98226.22;4487869;31;20089;-79
2023/03/30 06:48:22;;;;;;;15.00;6.15;;;;;;;16.27;43.84;98219.19;4487442;31;20419;-80
2023/03/30 06:50:50;;;;;;;14.20;6.37;;;;;;;16.08;44.12;98219.53;4486961;32;20155;-78
2023/03/30 06:53:19;;;;;;;16.33;6.62;;;;;;;16.56;43.02;98230.38;4486617;32;20117;-78
2023/03/30 06:55:53;;;;;;;13.52;6.15;;;;;;;16.94;42.43;98233.97;4487444;31;20093;-79
2023/03/30 06:58:20;;;;;;;15.18;6.22;;;;;;;17.58;40.84;98242.72;4487834;31;20064;-78
2023/03/30 07:00:48;;;;;;;13.05;5.70;;;;;;;17.49;40.04;98235.50;4488041;31;20110;-78
2023/03/30 07:03:17;;;;;;;11.98;5.65;;;;;;;17.62;39.76;98240.72;4486392;32;20100;-77
2023/03/30 07:05:48;;;;;;;13.10;6.00;;;;;;;17.08;40.70;98232.22;4487812;31;20108;-77
2023/03/30 07:08:16;;;;;;;15.82;6.50;;;;;;;17.35;40.39;98240.84;4487548;31;20414;-78
2023/03/30 07:10:43;;;;;;;16.25;7.15;;;;;;;16.87;41.46;98237.06;4487636;31;20088;-78
2023/03/30 07:13:10;;;;;;;16.48;6.75;;;;;;;15.88;43.12;98239.81;4487866;31;20161;-77
2023/03/30 07:15:37;;;;;;;15.40;6.68;;;;;;;15.61;44.13;98229.28;4487639;31;20080;-78
2023/03/30 07:18:03;;;;;;;12.27;6.15;;;;;;;16.25;42.49;98221.91;4487265;31;20461;-78
2023/03/30 07:20:30;;;;;;;12.88;6.20;;;;;;;15.94;42.81;98216.94;4487719;31;20127;-79
2023/03/30 07:22:57;;;;;;;12.73;5.97;;;;;;;15.88;43.89;98233.78;4487718;31;20103;-79
2023/03/30 07:25:24;;;;;;;12.52;5.93;;;;;;;15.79;44.42;98231.72;4487367;31;20080;-79
2023/03/30 07:27:51;;;;;;;15.60;6.18;;;;;;;15.59;45.12;98225.94;4487579;31;20124;-78
2023/03/30 07:30:18;;;;;;;15.40;6.45;;;;;;;16.43;43.18;98215.53;4487476;31;20096;-79
2023/03/30 07:32:51;;;;;;;21.62;8.10;;;;;;;16.71;42.26;98201.63;4487677;31;20100;-78
2023/03/30 07:35:21;;;;;;;12.85;5.93;;;;;;;16.69;42.63;98205.22;4487671;31;20085;-77
2023/03/30 07:37:48;;;;;;;13.30;5.87;;;;;;;16.52;43.34;98208.06;4487029;31;20088;-78
2023/03/30 07:40:17;;;;;;;14.43;6.43;;;;;;;17.53;41.45;98213.47;4486580;32;20104;-78
2023/03/30 07:42:44;;;;;;;14.23;6.72;;;;;;;17.40;41.88;98215.25;4487706;31;20149;-81
2023/03/30 07:45:11;;;;;;;15.73;7.07;;;;;;;17.33;41.49;98209.66;4487189;31;20092;-81
2023/03/30 07:47:41;;;;;;;16.67;6.82;;;;;;;17.39;41.59;98212.75;4487597;32;20103;-81
2023/03/30 07:50:09;;;;;;;14.27;6.57;;;;;;;17.77;40.71;98221.47;4487600;31;20525;-81
2023/03/30 07:52:36;;;;;;;15.98;7.00;;;;;;;17.57;41.24;98220.19;4486854;31;20089;-81
2023/03/30 07:55:04;;;;;;;13.62;6.45;;;;;;;17.84;40.85;98216.63;4486246;32;20093;-82
2023/03/30 07:57:31;;;;;;;13.30;6.68;;;;;;;18.32;40.29;98222.78;4487036;32;20103;-81
2023/03/30 07:59:58;;;;;;;15.18;6.37;;;;;;;18.88;39.04;98222.25;4487244;31;20100;-82
2023/03/30 08:02:25;;;;;;;12.60;6.68;;;;;;;18.44;39.81;98215.84;4487490;31;20155;-82
2023/03/30 08:04:53;;;;;;;13.05;6.12;;;;;;;18.85;38.83;98210.25;4487495;31;20084;-82
2023/03/30 08:07:20;;;;;;;13.05;6.37;;;;;;;19.01;38.71;98212.56;4486913;32;20145;-82
2023/03/30 08:09:47;;;;;;;14.85;6.87;;;;;;;18.85;38.35;98212.88;4487296;32;20448;-80
2023/03/30 08:12:14;;;;;;;14.38;6.07;;;;;;;17.85;40.97;98206.06;4487366;31;20438;-82
2023/03/30 08:14:40;;;;;;;15.75;6.30;;;;;;;18.05;40.54;98202.06;4486881;31;20076;-83
2023/03/30 08:17:07;;;;;;;13.40;6.50;;;;;;;18.46;40.11;98211.34;4487175;31;20153;-83
2023/03/30 08:19:34;;;;;;;13.38;6.65;;;;;;;18.42;40.01;98217.75;4486119;31;20095;-83
2023/03/30 08:22:02;;;;;;;13.52;6.35;;;;;;;18.26;39.71;98220.59;4487340;31;20443;-82
2023/03/30 08:24:29;;;;;;;13.55;6.62;;;;;;;18.14;40.16;98230.16;4487285;31;20431;-83
2023/03/30 08:26:56;;;;;;;13.07;5.68;;;;;;;18.30;40.43;98223.84;4486231;31;20088;-82
2023/03/30 08:29:23;;;;;;;13.90;5.62;;;;;;;18.27;39.05;98219.66;4487057;32;20096;-82
2023/03/30 08:31:50;;;;;;;13.62;5.85;;;;;;;17.72;40.79;98217.47;4487221;32;20093;-82
2023/03/30 08:34:18;;;;;;;13.02;5.55;;;;;;;17.85;39.29;98200.03;4486741;31;20103;-83
2023/03/30 08:36:45;;;;;;;10.93;5.12;;;;;;;17.49;39.83;98183.34;4486975;31;20109;-82
2023/03/30 08:39:11;;;;;;;13.55;5.12;;;;;;;17.21;41.74;98191.34;4487143;31;20096;-82
2023/03/30 08:41:42;;;;;;;14.57;6.03;;;;;;;16.96;41.53;98192.16;4486695;32;20100;-82
2023/03/30 08:44:21;;;;;;;14.38;5.87;;;;;;;16.86;41.84;98185.91;4487150;31;20121;-82
2023/03/30 08:46:49;;;;;;;11.95;5.20;;;;;;;16.85;42.96;98198.09;4486924;31;20077;-82
2023/03/30 08:49:18;;;;;;;13.55;6.00;;;;;;;16.85;42.49;98199.88;4486554;32;20111;-79
2023/03/30 08:51:48;;;;;;;15.57;5.70;;;;;;;17.03;43.17;98199.50;4486776;31;20511;-80
2023/03/30 08:54:20;;;;;;;12.15;5.55;;;;;;;17.32;42.38;98200.13;4487008;31;20408;-80
2023/03/30 08:57:02;;;;;;;13.85;5.78;;;;;;;17.76;42.38;98209.34;4486393;31;20157;-80
2023/03/30 08:59:31;;;;;;;12.55;5.75;;;;;;;17.48;42.29;98205.16;4487004;31;20140;-80
2023/03/30 09:02:23;;;;;;;12.35;5.57;;;;;;;17.81;41.65;98188.13;4486516;31;20771;-80
2023/03/30 09:04:56;;;;;;;12.18;5.68;;;;;;;17.66;40.93;98186.56;4485688;32;20107;-80
2023/03/30 09:07:37;;;;;;;10.63;5.03;;;;;;;17.68;41.85;98187.28;4486636;31;20069;-80
2023/03/30 09:10:11;;;;;;;13.65;5.45;;;;;;;17.73;41.50;98174.78;4485181;32;20157;-81
2023/03/30 09:12:51;;;;;;;13.70;5.72;;;;;;;18.18;40.38;98175.91;4485648;32;20168;-80
2023/03/30 09:15:35;;;;;;;12.88;5.90;;;;;;;18.21;39.98;98175.72;4485405;32;20096;-81
2023/03/30 09:18:12;;;;;;;14.45;5.97;;;;;;;18.85;39.05;98172.81;4485188;32;20085;-80
2023/03/30 09:20:39;;;;;;;11.05;5.10;;;;;;;19.57;38.45;98169.06;4486591;31;20092;-81
2023/03/30 09:23:13;;;;;;;10.20;5.07;;;;;;;19.99;37.70;98164.03;4484960;32;20112;-82
2023/03/30 09:26:12;;;;;;;12.50;5.53;;;;;;;20.03;36.74;98170.69;4486196;31;20099;-83
2023/03/30 09:28:57;;;;;;;11.23;4.47;;;;;;;19.93;36.43;98162.72;4485185;32;20442;-82
2023/03/30 09:31:32;;;;;;;10.98;5.07;;;;;;;20.12;37.42;98169.13;4486145;31;20398;-83
2023/03/30 09:34:03;;;;;;;15.57;5.35;;;;;;;20.25;38.35;98166.34;4487417;32;20438;-82
2023/03/30 09:37:17;;;;;;;11.75;4.70;;;;;;;20.48;36.86;98160.94;4486042;32;20103;-83
2023/03/30 09:39:45;;;;;;;14.20;5.03;;;;;;;20.13;36.71;98150.66;4488475;31;20076;-82
2023/03/30 09:42:36;;;;;;;12.37;5.18;;;;;;;20.77;36.00;98155.13;4487420;32;20383;-83
2023/03/30 09:45:14;;;;;;;12.27;4.37;;;;;;;20.45;35.11;98152.50;4488223;31;20087;-81
2023/03/30 09:47:41;;;;;;;12.95;4.57;;;;;;;20.15;36.96;98147.91;4486997;32;20149;-83
2023/03/30 09:50:12;;;;;;;10.18;4.37;;;;;;;20.23;35.99;98148.16;4488412;31;20069;-86
2023/03/30 09:52:40;;;;;;;10.50;4.32;;;;;;;20.72;35.94;98147.63;4486601;32;20115;-87
2023/03/30 09:55:27;;;;;;;10.80;4.50;;;;;;;20.44;36.25;98135.97;4488390;31;20163;-83
2023/03/30 09:58:19;;;;;;;10.05;4.43;;;;;;;20.72;35.25;98128.44;4487792;31;20152;-83
2023/03/30 10:01:02;;;;;;;10.52;4.25;;;;;;;19.40;38.66;98127.63;4488341;31;20103;-83
2023/03/30 10:03:29;;;;;;;8.23;4.10;;;;;;;20.36;35.82;98125.22;4488380;31;20189;-82
2023/03/30 10:06:06;;;;;;;11.65;4.78;;;;;;;20.74;35.74;98118.69;4487139;31;20566;-84
2023/03/30 10:08:40;;;;;;;9.93;4.22;;;;;;;20.89;34.77;98114.75;4487070;32;20159;-84
2023/03/30 10:11:08;;;;;;;11.57;4.03;;;;;;;20.26;36.34;98111.22;4487173;32;20076;-83
2023/03/30 10:13:40;;;;;;;11.85;4.15;;;;;;;20.57;37.05;98106.94;4487886;31;20404;-84
2023/03/30 10:16:33;;;;;;;9.82;3.75;;;;;;;20.93;35.11;98104.84;4487087;31;20109;-83
2023/03/30 10:19:04;;;;;;;12.27;4.28;;;;;;;20.78;34.97;98109.59;4487502;31;20085;-82
2023/03/30 10:21:36;;;;;;;10.35;3.72;;;;;;;20.03;36.86;98107.00;4487104;32;20115;-83
2023/03/30 10:24:13;;;;;;;11.60;3.85;;;;;;;20.40;36.27;98105.66;4488291;31;20100;-84
2023/03/30 10:26:43;;;;;;;;;;;;;;;20.04;36.65;98103.44;4488174;32;20096;-78
2023/03/30 10:29:20;;;;;;;9.60;4.00;;;;;;;19.89;37.10;98103.72;4488220;32;19972;-78
2023/03/30 10:31:50;;;;;;;10.07;3.83;;;;;;;19.55;37.11;98096.81;4488338;31;20077;-78
2023/03/30 10:34:20;;;;;;;11.93;3.83;;;;;;;19.53;37.64;98091.69;4486715;32;20104;-79
2023/03/30 10:36:50;;;;;;;10.93;3.87;;;;;;;19.79;38.69;98100.16;4486859;32;20122;-79
2023/03/30 10:39:28;;;;;;;9.65;3.90;;;;;;;19.91;37.96;98099.19;4486807;32;20084;-78
2023/03/30 10:41:56;;;;;;;9.77;3.67;;;;;;;19.82;37.87;98096.47;4487918;31;20072;-78
2023/03/30 10:44:34;;;;;;;9.57;3.83;;;;;;;20.12;37.69;98091.38;4487785;31;20481;-79
2023/03/30 10:47:07;;;;;;;9.68;3.65;;;;;;;19.99;37.39;98085.47;4487782;31;20572;-78
2023/03/30 10:50:02;;;;;;;9.80;3.50;;;;;;;20.15;37.30;98088.50;4488064;31;20076;-79
2023/03/30 10:52:41;;;;;;;9.80;3.58;;;;;;;20.08;37.45;98083.88;4487743;32;20088;-79
2023/03/30 10:55:31;;;;;;;6.80;2.80;;;;;;;20.32;35.80;98084.53;4487740;31;20092;-79
2023/03/30 10:58:36;;;;;;;9.07;3.08;;;;;;;20.65;36.49;98082.72;4487823;31;20526;-79
2023/03/30 11:02:19;;;;;;;8.10;3.05;;;;;;;20.32;35.27;98087.16;4480351;31;20100;-79
2023/03/30 11:05:03;;;;;;;10.25;3.40;;;;;;;19.59;37.09;98090.44;4348206;33;20083;-79
2023/03/30 11:07:53;;;;;;;7.62;2.85;;;;;;;19.69;37.33;98080.06;4348193;33;20605;-78
2023/03/30 11:10:26;;;;;;;10.40;3.70;;;;;;;19.80;37.81;98083.50;4467865;31;20097;-79
2023/03/30 11:12:57;;;;;;;10.60;3.70;;;;;;;19.84;37.66;98084.91;4487863;31;20465;-79
2023/03/30 11:15:28;;;;;;;9.18;3.50;;;;;;;20.01;36.98;98077.50;4486418;32;20084;-79
2023/03/30 11:18:06;;;;;;;8.60;3.72;;;;;;;20.46;37.43;98091.28;4486395;32;20157;-77
2023/03/30 11:20:38;;;;;;;9.77;3.80;;;;;;;20.54;36.88;98090.66;4486646;32;20431;-78
2023/03/30 11:23:13;;;;;;;10.35;3.80;;;;;;;20.34;37.21;98081.78;4486336;32;20088;-78
2023/03/30 11:25:46;;;;;;;8.40;3.12;;;;;;;20.26;37.08;98082.41;4486639;32;20137;-77
2023/03/30 11:28:35;;;;;;;10.30;3.50;;;;;;;20.22;37.03;98067.88;4487646;31;20156;-78
2023/03/30 11:31:10;;;;;;;10.00;3.58;;;;;;;20.13;37.70;98072.09;4487516;32;20103;-78
2023/03/30 11:33:57;;;;;;;9.73;3.10;;;;;;;20.43;38.12;98073.19;4487729;32;20111;-78
2023/03/30 11:36:35;;;;;;;10.25;3.40;;;;;;;20.43;37.48;98065.34;4486211;32;20076;-78
2023/03/30 11:39:06;;;;;;;10.50;3.78;;;;;;;21.07;35.40;98068.62;4486232;32;20104;-78
2023/03/30 11:41:44;;;;;;;9.93;3.62;;;;;;;20.77;36.33;98063.34;4480494;32;231068;-78
2023/03/30 11:44:11;;;;;;;9.93;3.25;;;;;;;20.42;37.16;98056.63;4486185;32;20141;-78
2023/03/30 11:46:40;;;;;;;9.35;3.30;;;;;;;20.32;37.14;98047.84;4487613;31;20129;-78
2023/03/30 11:49:16;;;;;;;8.00;2.97;;;;;;;20.38;38.26;98051.72;4486294;32;20111;-78